Sasabe, Arizona
Current Conditions -  °F | °C
As of 3:54 PM on Thursday 18 Dec 2014 (Local Time) from KOLS Reporting Station
Overcast Overcast  
Wind Chill: 50°   Ceiling: 4100
Heat Index: 50°   Visibility: 10mi
Dew Point: 41°   Wind: 3mph
Humidity: 71%   Direction: 260°W
Pressure: 30.1"   Gusts: NA
Location:  31.49°N, 111.54°W
Report Text: KOLS 182254Z AUTO 26003KT 10SM OVC041 10/05 A3010 RMK AO2 SLP168 T01000050
Loading
Personal Weather Stations






























Interactive Weather Map New forecast layout! Learn more

10-Day Weather Forecast

Advertisements
Track Severe Weather on mobile